Terminal Aerodrome Forecast
Issued by NWS Blacksburg, VA

Current Version | Previous Version | Graphics & Text | Print | Product List | Glossary On
Versions: 1 2 3 4 5 6 7 8 9 10 11 12 13 14 15 16 17 18 19 20 21 22 23 24 25 26 27 28 29 30 31 32 33 34 35 36 37 38 39 40 41
000
FTUS41 KRNK 180147 AAA
TAFBLF
TAF AMD
KBLF 180147Z 1802/1824 24003KT P6SM VCSH SCT040 BKN120
     FM180600 23003KT P6SM VCSH FEW025 BKN050
      TEMPO 1806/1809 -SHRA
     FM181100 22008KT 4SM -SHRA BKN025 OVC040
      TEMPO 1816/1820 2SM TSRA BKN015CB
     FM182000 27010KT 4SM SHRA SCT015 OVC025=

USA.gov is the U.S. government's official web portal to all federal, state and local government web resources and services.